sensor_id;sensor_type;location;lat;lon;timestamp;pressure;altitude;pressure_sealevel;temperature;humidity
23321;BME280;33376;51.306;4.752;2023-02-12T00:01:26;104338.34;;;7.72;100.00
23321;BME280;33376;51.306;4.752;2023-02-12T00:03:52;104328.72;;;7.79;100.00
23321;BME280;33376;51.306;4.752;2023-02-12T00:06:17;104322.53;;;7.77;100.00
23321;BME280;33376;51.306;4.752;2023-02-12T00:08:43;104334.91;;;7.82;100.00
23321;BME280;33376;51.306;4.752;2023-02-12T00:11:12;104333.94;;;7.74;100.00
23321;BME280;33376;51.306;4.752;2023-02-12T00:13:38;104327.78;;;7.72;100.00
23321;BME280;33376;51.306;4.752;2023-02-12T00:16:04;104337.38;;;7.66;100.00
23321;BME280;33376;51.306;4.752;2023-02-12T00:18:29;104334.72;;;7.64;100.00
23321;BME280;33376;51.306;4.752;2023-02-12T00:20:57;104334.75;;;7.69;100.00
23321;BME280;33376;51.306;4.752;2023-02-12T00:23:22;104334.88;;;7.79;100.00
23321;BME280;33376;51.306;4.752;2023-02-12T00:25:48;104334.84;;;7.75;100.00
23321;BME280;33376;51.306;4.752;2023-02-12T00:28:13;104333.13;;;7.78;100.00
23321;BME280;33376;51.306;4.752;2023-02-12T00:30:38;104336.31;;;7.53;100.00
23321;BME280;33376;51.306;4.752;2023-02-12T00:33:03;104328.13;;;7.33;100.00
23321;BME280;33376;51.306;4.752;2023-02-12T00:35:29;104336.00;;;7.30;100.00
23321;BME280;33376;51.306;4.752;2023-02-12T00:37:54;104349.19;;;7.30;100.00
23321;BME280;33376;51.306;4.752;2023-02-12T00:40:19;104345.75;;;7.36;100.00
23321;BME280;33376;51.306;4.752;2023-02-12T00:42:44;104344.81;;;7.32;100.00
23321;BME280;33376;51.306;4.752;2023-02-12T00:45:09;104341.31;;;7.33;100.00
23321;BME280;33376;51.306;4.752;2023-02-12T00:47:35;104342.19;;;7.34;100.00
23321;BME280;33376;51.306;4.752;2023-02-12T00:50:00;104348.34;;;7.33;100.00
23321;BME280;33376;51.306;4.752;2023-02-12T00:52:25;104346.63;;;7.35;100.00
23321;BME280;33376;51.306;4.752;2023-02-12T00:54:51;104339.63;;;7.37;100.00
23321;BME280;33376;51.306;4.752;2023-02-12T00:57:16;104345.84;;;7.43;100.00
23321;BME280;33376;51.306;4.752;2023-02-12T00:59:41;104346.38;;;7.20;100.00
23321;BME280;33376;51.306;4.752;2023-02-12T01:02:06;104343.69;;;7.15;100.00
23321;BME280;33376;51.306;4.752;2023-02-12T01:04:32;104341.97;;;7.19;100.00
23321;BME280;33376;51.306;4.752;2023-02-12T01:06:57;104336.66;;;7.16;100.00
23321;BME280;33376;51.306;4.752;2023-02-12T01:09:22;104327.72;;;7.08;100.00
23321;BME280;33376;51.306;4.752;2023-02-12T01:11:47;104321.59;;;7.10;100.00
23321;BME280;33376;51.306;4.752;2023-02-12T01:14:13;104314.50;;;7.05;100.00
23321;BME280;33376;51.306;4.752;2023-02-12T01:16:38;104316.50;;;7.21;100.00
23321;BME280;33376;51.306;4.752;2023-02-12T01:19:04;104307.59;;;7.14;100.00
23321;BME280;33376;51.306;4.752;2023-02-12T01:21:30;104305.84;;;7.16;100.00
23321;BME280;33376;51.306;4.752;2023-02-12T01:23:56;104296.19;;;7.17;100.00
23321;BME280;33376;51.306;4.752;2023-02-12T01:26:22;104295.34;;;7.18;100.00
23321;BME280;33376;51.306;4.752;2023-02-12T01:28:54;104278.63;;;7.19;100.00
23321;BME280;33376;51.306;4.752;2023-02-12T01:31:24;104279.56;;;7.21;100.00
23321;BME280;33376;51.306;4.752;2023-02-12T01:33:51;104283.97;;;7.23;100.00
23321;BME280;33376;51.306;4.752;2023-02-12T01:36:17;104273.47;;;7.28;100.00
23321;BME280;33376;51.306;4.752;2023-02-12T01:38:43;104277.03;;;7.30;100.00
23321;BME280;33376;51.306;4.752;2023-02-12T01:41:09;104268.38;;;7.41;100.00
23321;BME280;33376;51.306;4.752;2023-02-12T01:43:35;104273.59;;;7.35;100.00
23321;BME280;33376;51.306;4.752;2023-02-12T01:46:01;104281.41;;;7.29;100.00
23321;BME280;33376;51.306;4.752;2023-02-12T01:48:28;104272.63;;;7.29;100.00
23321;BME280;33376;51.306;4.752;2023-02-12T01:50:55;104283.13;;;7.26;100.00
23321;BME280;33376;51.306;4.752;2023-02-12T01:53:21;104271.78;;;7.33;100.00
23321;BME280;33376;51.306;4.752;2023-02-12T01:55:48;104278.03;;;7.38;100.00
23321;BME280;33376;51.306;4.752;2023-02-12T01:58:14;104274.44;;;7.33;100.00
23321;BME280;33376;51.306;4.752;2023-02-12T02:00:40;104272.50;;;7.23;100.00
23321;BME280;33376;51.306;4.752;2023-02-12T02:03:06;104276.09;;;7.26;100.00
23321;BME280;33376;51.306;4.752;2023-02-12T02:05:40;104272.63;;;7.29;100.00
23321;BME280;33376;51.306;4.752;2023-02-12T02:08:06;104275.31;;;7.32;100.00
23321;BME280;33376;51.306;4.752;2023-02-12T02:10:32;104276.38;;;7.46;100.00
23321;BME280;33376;51.306;4.752;2023-02-12T02:12:58;104270.09;;;7.36;100.00
23321;BME280;33376;51.306;4.752;2023-02-12T02:15:42;104269.91;;;7.26;100.00
23321;BME280;33376;51.306;4.752;2023-02-12T02:18:12;104270.63;;;7.13;100.00
23321;BME280;33376;51.306;4.752;2023-02-12T02:26:21;104269.75;;;7.12;100.00
23321;BME280;33376;51.306;4.752;2023-02-12T02:28:57;104256.53;;;7.11;100.00
23321;BME280;33376;51.306;4.752;2023-02-12T02:32:09;104256.53;;;7.11;100.00
23321;BME280;33376;51.306;4.752;2023-02-12T02:34:10;104248.66;;;7.15;100.00
23321;BME280;33376;51.306;4.752;2023-02-12T02:39:23;104256.44;;;7.05;100.00
23321;BME280;33376;51.306;4.752;2023-02-12T02:41:56;104245.84;;;7.02;100.00
23321;BME280;33376;51.306;4.752;2023-02-12T02:44:34;104246.59;;;6.93;100.00
23321;BME280;33376;51.306;4.752;2023-02-12T02:47:00;104242.25;;;6.95;100.00
23321;BME280;33376;51.306;4.752;2023-02-12T02:49:30;104248.50;;;7.03;100.00
23321;BME280;33376;51.306;4.752;2023-02-12T02:52:02;104244.75;;;6.89;100.00
23321;BME280;33376;51.306;4.752;2023-02-12T02:54:36;104242.13;;;6.89;100.00
23321;BME280;33376;51.306;4.752;2023-02-12T02:57:08;104242.25;;;6.97;100.00
23321;BME280;33376;51.306;4.752;2023-02-12T02:59:37;104242.28;;;6.98;100.00
23321;BME280;33376;51.306;4.752;2023-02-12T03:02:15;104238.81;;;7.04;100.00
23321;BME280;33376;51.306;4.752;2023-02-12T03:04:44;104238.03;;;7.09;100.00
23321;BME280;33376;51.306;4.752;2023-02-12T03:07:12;104249.56;;;7.16;100.00
23321;BME280;33376;51.306;4.752;2023-02-12T03:09:40;104238.94;;;7.10;100.00
23321;BME280;33376;51.306;4.752;2023-02-12T03:12:11;104243.34;;;7.12;100.00
23321;BME280;33376;51.306;4.752;2023-02-12T03:14:41;104245.06;;;7.10;100.00
23321;BME280;33376;51.306;4.752;2023-02-12T03:17:09;104236.28;;;7.10;100.00
23321;BME280;33376;51.306;4.752;2023-02-12T03:19:41;104243.34;;;7.11;100.00
23321;BME280;33376;51.306;4.752;2023-02-12T03:22:10;104238.88;;;7.08;100.00
23321;BME280;33376;51.306;4.752;2023-02-12T03:24:40;104239.03;;;7.19;100.00
23321;BME280;33376;51.306;4.752;2023-02-12T03:27:12;104235.16;;;6.94;100.00
23321;BME280;33376;51.306;4.752;2023-02-12T03:29:38;104235.97;;;6.87;100.00
23321;BME280;33376;51.306;4.752;2023-02-12T03:32:14;104240.44;;;6.94;100.00
23321;BME280;33376;51.306;4.752;2023-02-12T03:34:52;104242.28;;;7.00;100.00
23321;BME280;33376;51.306;4.752;2023-02-12T03:37:20;104235.19;;;6.96;100.00
23321;BME280;33376;51.306;4.752;2023-02-12T03:39:50;104220.19;;;6.90;100.00
23321;BME280;33376;51.306;4.752;2023-02-12T03:42:23;104229.88;;;6.93;100.00
23321;BME280;33376;51.306;4.752;2023-02-12T03:47:20;104239.72;;;7.04;100.00
23321;BME280;33376;51.306;4.752;2023-02-12T03:49:50;104225.59;;;7.01;100.00
23321;BME280;33376;51.306;4.752;2023-02-12T03:52:17;104231.81;;;7.04;100.00
23321;BME280;33376;51.306;4.752;2023-02-12T03:54:43;104234.59;;;7.16;100.00
23321;BME280;33376;51.306;4.752;2023-02-12T03:57:09;104229.28;;;7.13;100.00
23321;BME280;33376;51.306;4.752;2023-02-12T03:59:36;104233.75;;;7.19;100.00
23321;BME280;33376;51.306;4.752;2023-02-12T04:02:02;104232.84;;;7.17;100.00
23321;BME280;33376;51.306;4.752;2023-02-12T04:04:27;104232.00;;;7.18;100.00
23321;BME280;33376;51.306;4.752;2023-02-12T04:06:53;104236.19;;;7.04;100.00
23321;BME280;33376;51.306;4.752;2023-02-12T04:09:19;104237.97;;;7.05;100.00
23321;BME280;33376;51.306;4.752;2023-02-12T04:11:50;104240.81;;;7.20;100.00
23321;BME280;33376;51.306;4.752;2023-02-12T04:14:24;104245.94;;;7.08;100.00
23321;BME280;33376;51.306;4.752;2023-02-12T04:16:53;104244.13;;;7.05;100.00
23321;BME280;33376;51.306;4.752;2023-02-12T04:19:29;104253.84;;;7.08;100.00
23321;BME280;33376;51.306;4.752;2023-02-12T04:22:13;104249.34;;;7.02;100.00
23321;BME280;33376;51.306;4.752;2023-02-12T04:27:21;104253.75;;;7.00;100.00
23321;BME280;33376;51.306;4.752;2023-02-12T04:29:54;104259.94;;;7.04;100.00
23321;BME280;33376;51.306;4.752;2023-02-12T04:32:32;104262.06;;;7.29;100.00
23321;BME280;33376;51.306;4.752;2023-02-12T04:37:56;104259.13;;;7.08;100.00
23321;BME280;33376;51.306;4.752;2023-02-12T04:40:23;104274.94;;;7.06;100.00
23321;BME280;33376;51.306;4.752;2023-02-12T04:42:49;104275.91;;;7.11;100.00
23321;BME280;33376;51.306;4.752;2023-02-12T04:45:19;104267.91;;;7.08;100.00
23321;BME280;33376;51.306;4.752;2023-02-12T04:47:46;104270.44;;;7.01;100.00
23321;BME280;33376;51.306;4.752;2023-02-12T04:50:11;104273.94;;;6.98;100.00
23321;BME280;33376;51.306;4.752;2023-02-12T04:52:37;104279.34;;;7.07;100.00
23321;BME280;33376;51.306;4.752;2023-02-12T04:55:02;104282.06;;;7.13;100.00
23321;BME280;33376;51.306;4.752;2023-02-12T04:57:27;104281.22;;;7.16;100.00
23321;BME280;33376;51.306;4.752;2023-02-12T04:59:53;104283.75;;;7.08;100.00
23321;BME280;33376;51.306;4.752;2023-02-12T05:02:18;104282.84;;;7.06;100.00
23321;BME280;33376;51.306;4.752;2023-02-12T05:04:43;104288.22;;;7.12;100.00
23321;BME280;33376;51.306;4.752;2023-02-12T05:07:09;104277.63;;;7.09;100.00
23321;BME280;33376;51.306;4.752;2023-02-12T05:09:35;104281.06;;;7.05;100.00
23321;BME280;33376;51.306;4.752;2023-02-12T05:12:00;104288.13;;;7.05;100.00
23321;BME280;33376;51.306;4.752;2023-02-12T05:14:25;104289.13;;;7.14;100.00
23321;BME280;33376;51.306;4.752;2023-02-12T05:16:50;104296.16;;;7.15;100.00
23321;BME280;33376;51.306;4.752;2023-02-12T05:19:16;104298.88;;;7.21;100.00
23321;BME280;33376;51.306;4.752;2023-02-12T05:21:41;104287.28;;;7.10;100.00
23321;BME280;33376;51.306;4.752;2023-02-12T05:24:06;104300.41;;;7.04;100.00
23321;BME280;33376;51.306;4.752;2023-02-12T05:26:32;104290.84;;;7.11;100.00
23321;BME280;33376;51.306;4.752;2023-02-12T05:28:57;104294.28;;;7.08;100.00
23321;BME280;33376;51.306;4.752;2023-02-12T05:31:22;104302.16;;;7.05;100.00
23321;BME280;33376;51.306;4.752;2023-02-12T05:33:48;104300.94;;;6.82;100.00
23321;BME280;33376;51.306;4.752;2023-02-12T05:36:15;104302.88;;;6.92;100.00
23321;BME280;33376;51.306;4.752;2023-02-12T05:38:40;104296.69;;;6.92;100.00
23321;BME280;33376;51.306;4.752;2023-02-12T05:41:07;104292.25;;;6.89;100.00
23321;BME280;33376;51.306;4.752;2023-02-12T05:43:33;104282.59;;;6.90;100.00
23321;BME280;33376;51.306;4.752;2023-02-12T05:45:59;104285.28;;;6.94;100.00
23321;BME280;33376;51.306;4.752;2023-02-12T05:48:25;104286.31;;;7.04;100.00
23321;BME280;33376;51.306;4.752;2023-02-12T05:50:50;104296.09;;;7.11;100.00
23321;BME280;33376;51.306;4.752;2023-02-12T05:53:15;104284.44;;;6.94;100.00
23321;BME280;33376;51.306;4.752;2023-02-12T05:55:40;104292.00;;;6.73;100.00
23321;BME280;33376;51.306;4.752;2023-02-12T05:58:06;104279.81;;;6.81;100.00
23321;BME280;33376;51.306;4.752;2023-02-12T06:00:31;104272.97;;;6.93;100.00
23321;BME280;33376;51.306;4.752;2023-02-12T06:02:56;104283.53;;;6.93;100.00
23321;BME280;33376;51.306;4.752;2023-02-12T06:05:21;104283.69;;;7.04;100.00
23321;BME280;33376;51.306;4.752;2023-02-12T06:07:47;104284.44;;;6.95;100.00
23321;BME280;33376;51.306;4.752;2023-02-12T06:10:12;104287.91;;;6.93;100.00
23321;BME280;33376;51.306;4.752;2023-02-12T06:12:37;104284.19;;;6.79;100.00
23321;BME280;33376;51.306;4.752;2023-02-12T06:15:02;104284.22;;;6.82;100.00
23321;BME280;33376;51.306;4.752;2023-02-12T06:17:28;104280.66;;;6.80;100.00
23321;BME280;33376;51.306;4.752;2023-02-12T06:19:53;104286.78;;;6.76;100.00
23321;BME280;33376;51.306;4.752;2023-02-12T06:22:18;104289.16;;;6.61;100.00
23321;BME280;33376;51.306;4.752;2023-02-12T06:24:43;104283.34;;;7.41;100.00
23321;BME280;33376;51.306;4.752;2023-02-12T06:27:08;104287.00;;;6.91;100.00
23321;BME280;33376;51.306;4.752;2023-02-12T06:29:34;104284.84;;;6.66;100.00
23321;BME280;33376;51.306;4.752;2023-02-12T06:31:59;104285.66;;;6.62;100.00
23321;BME280;33376;51.306;4.752;2023-02-12T06:34:24;104288.31;;;6.63;100.00
23321;BME280;33376;51.306;4.752;2023-02-12T06:36:49;104288.34;;;6.65;100.00
23321;BME280;33376;51.306;4.752;2023-02-12T06:39:15;104281.28;;;6.64;100.00
23321;BME280;33376;51.306;4.752;2023-02-12T06:41:40;104290.91;;;6.60;100.00
23321;BME280;33376;51.306;4.752;2023-02-12T06:44:06;104295.28;;;6.58;100.00
23321;BME280;33376;51.306;4.752;2023-02-12T06:46:31;104289.84;;;6.49;100.00
23321;BME280;33376;51.306;4.752;2023-02-12T06:48:57;104296.00;;;6.51;100.00
23321;BME280;33376;51.306;4.752;2023-02-12T06:51:23;104294.25;;;6.50;100.00
23321;BME280;33376;51.306;4.752;2023-02-12T06:53:49;104299.53;;;6.52;100.00
23321;BME280;33376;51.306;4.752;2023-02-12T06:56:15;104300.41;;;6.51;100.00
23321;BME280;33376;51.306;4.752;2023-02-12T06:58:43;104297.72;;;6.48;100.00
23321;BME280;33376;51.306;4.752;2023-02-12T07:01:09;104295.09;;;6.48;100.00
23321;BME280;33376;51.306;4.752;2023-02-12T07:03:37;104299.56;;;6.53;100.00
23321;BME280;33376;51.306;4.752;2023-02-12T07:06:03;104300.41;;;6.51;100.00
23321;BME280;33376;51.306;4.752;2023-02-12T07:08:29;104299.53;;;6.52;100.00
23321;BME280;33376;51.306;4.752;2023-02-12T07:10:54;104295.09;;;6.48;100.00
23321;BME280;33376;51.306;4.752;2023-02-12T07:13:19;104296.84;;;6.49;100.00
23321;BME280;33376;51.306;4.752;2023-02-12T07:15:44;104302.00;;;6.41;100.00
23321;BME280;33376;51.306;4.752;2023-02-12T07:18:10;104307.16;;;6.37;100.00
23321;BME280;33376;51.306;4.752;2023-02-12T07:20:35;104305.41;;;6.36;100.00
23321;BME280;33376;51.306;4.752;2023-02-12T07:23:00;104291.41;;;6.38;100.00
23321;BME280;33376;51.306;4.752;2023-02-12T07:25:26;104297.56;;;6.40;100.00
23321;BME280;33376;51.306;4.752;2023-02-12T07:27:51;104289.72;;;6.43;100.00
23321;BME280;33376;51.306;4.752;2023-02-12T07:30:16;104302.09;;;6.46;100.00
23321;BME280;33376;51.306;4.752;2023-02-12T07:32:43;104293.38;;;6.51;100.00
23321;BME280;33376;51.306;4.752;2023-02-12T07:35:08;104291.72;;;6.58;100.00
23321;BME280;33376;51.306;4.752;2023-02-12T07:37:34;104295.28;;;6.58;100.00
23321;BME280;33376;51.306;4.752;2023-02-12T07:39:59;104295.28;;;6.58;100.00
23321;BME280;33376;51.306;4.752;2023-02-12T07:42:24;104296.22;;;6.62;100.00
23321;BME280;33376;51.306;4.752;2023-02-12T07:44:49;104298.88;;;6.63;100.00
23321;BME280;33376;51.306;4.752;2023-02-12T07:47:15;104293.66;;;6.68;100.00
23321;BME280;33376;51.306;4.752;2023-02-12T07:49:40;104297.09;;;6.64;100.00
23321;BME280;33376;51.306;4.752;2023-02-12T07:52:05;104297.94;;;6.61;100.00
23321;BME280;33376;51.306;4.752;2023-02-12T07:54:31;104291.06;;;6.71;100.00
23321;BME280;33376;51.306;4.752;2023-02-12T07:56:56;104303.50;;;6.76;100.00
23321;BME280;33376;51.306;4.752;2023-02-12T07:59:22;104300.88;;;6.78;100.00
23321;BME280;33376;51.306;4.752;2023-02-12T08:01:48;104297.38;;;6.79;100.00
23321;BME280;33376;51.306;4.752;2023-02-12T08:04:14;104293.94;;;6.83;100.00
23321;BME280;33376;51.306;4.752;2023-02-12T08:06:41;104296.63;;;6.86;100.00
23321;BME280;33376;51.306;4.752;2023-02-12T08:09:07;104305.47;;;6.91;100.00
23321;BME280;33376;51.306;4.752;2023-02-12T08:11:34;104305.53;;;6.94;100.00
23321;BME280;33376;51.306;4.752;2023-02-12T08:14:00;104302.03;;;6.95;100.00
23321;BME280;33376;51.306;4.752;2023-02-12T08:16:26;104297.72;;;7.00;100.00
23321;BME280;33376;51.306;4.752;2023-02-12T08:18:52;104300.38;;;7.03;100.00
23321;BME280;33376;51.306;4.752;2023-02-12T08:21:18;104293.38;;;7.03;100.00
23321;BME280;33376;51.306;4.752;2023-02-12T08:23:44;104295.19;;;7.09;100.00
23321;BME280;33376;51.306;4.752;2023-02-12T08:26:16;104295.28;;;7.16;100.00
23321;BME280;33376;51.306;4.752;2023-02-12T08:28:43;104293.63;;;7.23;100.00
23321;BME280;33376;51.306;4.752;2023-02-12T08:31:19;104297.19;;;7.25;100.00
23321;BME280;33376;51.306;4.752;2023-02-12T08:33:46;104306.97;;;7.32;100.00
23321;BME280;33376;51.306;4.752;2023-02-12T08:36:13;104306.16;;;7.37;100.00
23321;BME280;33376;51.306;4.752;2023-02-12T08:38:39;104304.50;;;7.44;100.00
23321;BME280;33376;51.306;4.752;2023-02-12T08:41:09;104306.22;;;7.42;100.00
23321;BME280;33376;51.306;4.752;2023-02-12T08:43:35;104311.50;;;7.42;100.00
23321;BME280;33376;51.306;4.752;2023-02-12T08:46:04;104317.78;;;7.50;100.00
23321;BME280;33376;51.306;4.752;2023-02-12T08:48:30;104316.09;;;7.57;100.00
23321;BME280;33376;51.306;4.752;2023-02-12T08:50:55;104324.06;;;7.61;100.00
23321;BME280;33376;51.306;4.752;2023-02-12T08:53:23;104321.50;;;7.63;100.00
23321;BME280;33376;51.306;4.752;2023-02-12T08:55:49;104322.34;;;7.63;100.00
23321;BME280;33376;51.306;4.752;2023-02-12T08:58:14;104338.28;;;7.69;100.00
23321;BME280;33376;51.306;4.752;2023-02-12T09:00:40;104335.78;;;7.78;100.00
23321;BME280;33376;51.306;4.752;2023-02-12T09:03:05;104331.50;;;7.89;100.00
23321;BME280;33376;51.306;4.752;2023-02-12T09:05:30;104350.94;;;7.94;100.00
23321;BME280;33376;51.306;4.752;2023-02-12T09:07:55;104341.34;;;8.01;100.00
23321;BME280;33376;51.306;4.752;2023-02-12T09:10:21;104341.41;;;8.08;100.00
23321;BME280;33376;51.306;4.752;2023-02-12T09:12:46;104344.13;;;8.14;100.00
23321;BME280;33376;51.306;4.752;2023-02-12T09:15:12;104354.72;;;8.16;100.00
23321;BME280;33376;51.306;4.752;2023-02-12T09:17:37;104361.81;;;8.18;100.00
23321;BME280;33376;51.306;4.752;2023-02-12T09:20:05;104368.94;;;8.25;100.00
23321;BME280;33376;51.306;4.752;2023-02-12T09:22:30;104375.13;;;8.24;100.00
23321;BME280;33376;51.306;4.752;2023-02-12T09:24:55;104372.59;;;8.38;100.00
23321;BME280;33376;51.306;4.752;2023-02-12T09:27:21;104387.50;;;8.30;100.00
23321;BME280;33376;51.306;4.752;2023-02-12T09:29:46;104374.25;;;8.27;100.00
23321;BME280;33376;51.306;4.752;2023-02-12T09:32:11;104371.72;;;8.36;100.00
23321;BME280;33376;51.306;4.752;2023-02-12T09:34:36;104389.38;;;8.38;100.00
23321;BME280;33376;51.306;4.752;2023-02-12T09:37:02;104387.59;;;8.34;100.00
23321;BME280;33376;51.306;4.752;2023-02-12T09:39:27;104393.88;;;8.47;100.00
23321;BME280;33376;51.306;4.752;2023-02-12T09:44:31;104384.25;;;8.52;100.00
23321;BME280;33376;51.306;4.752;2023-02-12T09:47:04;104389.63;;;8.61;100.00
23321;BME280;33376;51.306;4.752;2023-02-12T09:49:43;104379.94;;;8.61;100.00
23321;BME280;33376;51.306;4.752;2023-02-12T09:52:13;104366.72;;;8.64;100.00
23321;BME280;33376;51.306;4.752;2023-02-12T09:54:40;104369.28;;;8.57;100.00
23321;BME280;33376;51.306;4.752;2023-02-12T09:57:11;104375.59;;;8.69;100.00
23321;BME280;33376;51.306;4.752;2023-02-12T09:59:47;104375.66;;;8.77;100.00
23321;BME280;33376;51.306;4.752;2023-02-12T10:02:14;104381.88;;;8.80;100.00
23321;BME280;33376;51.306;4.752;2023-02-12T10:04:43;104374.78;;;8.78;100.00
23321;BME280;33376;51.306;4.752;2023-02-12T10:07:30;104368.66;;;8.83;100.00
23321;BME280;33376;51.306;4.752;2023-02-12T10:17:22;104359.03;;;8.93;100.00
23321;BME280;33376;51.306;4.752;2023-02-12T10:22:42;104336.88;;;8.80;100.00
23321;BME280;33376;51.306;4.752;2023-02-12T10:27:51;104333.47;;;8.95;100.00
23321;BME280;33376;51.306;4.752;2023-02-12T10:30:21;104329.06;;;8.97;100.00
23321;BME280;33376;51.306;4.752;2023-02-12T10:32:49;104322.94;;;9.03;100.00
23321;BME280;33376;51.306;4.752;2023-02-12T10:35:16;104313.97;;;8.84;100.00
23321;BME280;33376;51.306;4.752;2023-02-12T10:37:43;104314.97;;;9.00;100.00
23321;BME280;33376;51.306;4.752;2023-02-12T10:40:15;104320.31;;;9.07;100.00
23321;BME280;33376;51.306;4.752;2023-02-12T10:42:42;104309.72;;;9.06;100.00
23321;BME280;33376;51.306;4.752;2023-02-12T10:45:12;104303.53;;;9.04;100.00
23321;BME280;33376;51.306;4.752;2023-02-12T10:47:38;104298.22;;;8.99;100.00
23321;BME280;33376;51.306;4.752;2023-02-12T10:50:07;104284.09;;;9.00;100.00
23321;BME280;33376;51.306;4.752;2023-02-12T10:52:55;104274.34;;;8.93;100.00
23321;BME280;33376;51.306;4.752;2023-02-12T10:55:27;104273.50;;;8.99;100.00
23321;BME280;33376;51.306;4.752;2023-02-12T10:57:52;104277.06;;;9.07;100.00
23321;BME280;33376;51.306;4.752;2023-02-12T11:00:22;104275.38;;;9.16;100.00
23321;BME280;33376;51.306;4.752;2023-02-12T11:02:59;104264.72;;;9.06;100.00
23321;BME280;33376;51.306;4.752;2023-02-12T11:05:26;104258.53;;;9.05;100.00
23321;BME280;33376;51.306;4.752;2023-02-12T11:07:53;104285.09;;;9.17;100.00
23321;BME280;33376;51.306;4.752;2023-02-12T11:10:26;104281.59;;;9.23;100.00
23321;BME280;33376;51.306;4.752;2023-02-12T11:12:52;104278.91;;;9.15;100.00
23321;BME280;33376;51.306;4.752;2023-02-12T11:15:19;104273.63;;;9.20;100.00
23321;BME280;33376;51.306;4.752;2023-02-12T11:17:53;104271.91;;;9.28;100.00
23321;BME280;33376;51.306;4.752;2023-02-12T11:20:21;104270.94;;;9.11;100.00
23321;BME280;33376;51.306;4.752;2023-02-12T11:23:05;104269.22;;;9.16;100.00
23321;BME280;33376;51.306;4.752;2023-02-12T11:25:32;104254.19;;;9.18;100.00
23321;BME280;33376;51.306;4.752;2023-02-12T11:28:09;104246.19;;;9.09;100.00
23321;BME280;33376;51.306;4.752;2023-02-12T11:30:47;104239.97;;;9.01;100.00
23321;BME280;33376;51.306;4.752;2023-02-12T11:33:20;104236.44;;;9.03;100.00
23321;BME280;33376;51.306;4.752;2023-02-12T11:35:48;104246.31;;;9.24;100.00
23321;BME280;33376;51.306;4.752;2023-02-12T11:38:17;104234.81;;;9.20;100.00
23321;BME280;33376;51.306;4.752;2023-02-12T11:40:45;104226.00;;;9.27;100.00
23321;BME280;33376;51.306;4.752;2023-02-12T11:43:12;104217.22;;;9.40;100.00
23321;BME280;33376;51.306;4.752;2023-02-12T11:45:42;104225.19;;;9.45;100.00
23321;BME280;33376;51.306;4.752;2023-02-12T11:48:15;104226.97;;;9.49;100.00
23321;BME280;33376;51.306;4.752;2023-02-12T11:50:45;104205.78;;;9.53;100.00
23321;BME280;33376;51.306;4.752;2023-02-12T11:53:16;104176.53;;;9.16;100.00
23321;BME280;33376;51.306;4.752;2023-02-12T11:55:43;104172.97;;;9.12;100.00
23321;BME280;33376;51.306;4.752;2023-02-12T11:58:21;104172.13;;;9.21;100.00
23321;BME280;33376;51.306;4.752;2023-02-12T12:01:02;104180.06;;;9.21;100.00
23321;BME280;33376;51.306;4.752;2023-02-12T12:03:36;104186.31;;;9.30;100.00
23321;BME280;33376;51.306;4.752;2023-02-12T12:06:17;104180.97;;;9.24;100.00
23321;BME280;33376;51.306;4.752;2023-02-12T12:09:06;104176.56;;;9.26;100.00
23321;BME280;33376;51.306;4.752;2023-02-12T12:14:19;104183.69;;;9.48;100.00
23321;BME280;33376;51.306;4.752;2023-02-12T12:16:51;104174.00;;;9.44;100.00
23321;BME280;33376;51.306;4.752;2023-02-12T12:19:39;104174.91;;;9.72;100.00
23321;BME280;33376;51.306;4.752;2023-02-12T12:27:22;104165.13;;;9.38;100.00
23321;BME280;33376;51.306;4.752;2023-02-12T12:30:10;104135.97;;;9.27;100.00
23321;BME280;33376;51.306;4.752;2023-02-12T12:32:38;104137.75;;;9.34;100.00
23321;BME280;33376;51.306;4.752;2023-02-12T12:35:08;104153.66;;;9.39;100.00
23321;BME280;33376;51.306;4.752;2023-02-12T12:37:39;104136.88;;;9.35;100.00
23321;BME280;33376;51.306;4.752;2023-02-12T12:43:12;104128.97;;;9.46;100.00
23321;BME280;33376;51.306;4.752;2023-02-12T12:50:50;104134.25;;;9.41;100.00
23321;BME280;33376;51.306;4.752;2023-02-12T12:58:16;104141.31;;;9.44;100.00
23321;BME280;33376;51.306;4.752;2023-02-12T13:26:06;104120.03;;;9.15;100.00
23321;BME280;33376;51.306;4.752;2023-02-12T13:31:00;104133.28;;;9.11;100.00
23321;BME280;33376;51.306;4.752;2023-02-12T13:33:43;104132.38;;;9.15;100.00
23321;BME280;33376;51.306;4.752;2023-02-12T13:36:11;104127.97;;;9.12;100.00
23321;BME280;33376;51.306;4.752;2023-02-12T13:38:39;104132.38;;;9.06;100.00
23321;BME280;33376;51.306;4.752;2023-02-12T13:41:07;104136.81;;;9.17;100.00
23321;BME280;33376;51.306;4.752;2023-02-12T13:46:21;104126.22;;;9.13;100.00
23321;BME280;33376;51.306;4.752;2023-02-12T13:56:11;104135.03;;;9.12;100.00
23321;BME280;33376;51.306;4.752;2023-02-12T13:58:49;104131.53;;;9.16;100.00
23321;BME280;33376;51.306;4.752;2023-02-12T14:01:34;104121.78;;;9.07;100.00
23321;BME280;33376;51.306;4.752;2023-02-12T14:04:14;104127.97;;;9.09;100.00
23321;BME280;33376;51.306;4.752;2023-02-12T14:06:49;104120.03;;;9.08;100.00
23321;BME280;33376;51.306;4.752;2023-02-12T14:09:17;104123.53;;;9.04;100.00
23321;BME280;33376;51.306;4.752;2023-02-12T14:11:45;104105.91;;;9.16;100.00
23321;BME280;33376;51.306;4.752;2023-02-12T14:14:12;104093.56;;;9.21;100.00
23321;BME280;33376;51.306;4.752;2023-02-12T14:16:38;104119.19;;;9.24;100.00
23321;BME280;33376;51.306;4.752;2023-02-12T14:21:48;104138.56;;;9.12;100.00
23321;BME280;33376;51.306;4.752;2023-02-12T14:26:59;104133.28;;;9.15;100.00
23321;BME280;33376;51.306;4.752;2023-02-12T14:29:24;104121.78;;;9.06;100.00
23321;BME280;33376;51.306;4.752;2023-02-12T14:31:50;104127.06;;;9.09;100.00